Airfield :
LOGIN :

Register | Disclaimer

   EN    FR    IT 

 










Legend :    VFR   Marginal VFR   IFR   Intensive IFR   Very Intensive IFR
Visi :
Ceiling :
>= 8 km
>= 3000ft
5 to 8 km
1000 to 3000 ft
1500m to 5 km
500 to 1000 ft
800 to 1500m
200 to 500 ft
< 800m
< 200 ft
Symbols :   Thunderstorms  Fog  Heavy snow  Heavy precipitations  Wind > 20 kt
SIGMETs :     Misc.  Thunderstorms  Icing  Turbulence  Mountain Waves  Volcanic Ashes






- Airport Elevation : 117 ft
- IATA code : NWI


EGSH - Norwich

CURRENT METAR :
  • 080720Z 26023G34KT 9999 SCT037 11/06 Q0995 NOSIG

EXPIRED METARs :
  • 080650Z 25018KT 220V280 9000 -RA SCT014 BKN017 12/10 Q0994
  • 080620Z 23020KT 9999 SCT017 BKN026 12/10 Q0994 NOSIG
  • 080550Z 22020G31KT 190V250 9999 SCT011 BKN016 12/10 Q0994 TEMPO BKN012
  • 080520Z AUTO 22019KT 9999 BKN007/// OVC011/// 11/09 Q0994
  • 080450Z AUTO 21019G30KT 9999 BKN008/// OVC012/// 11/09 Q0994

TAF AMD TAF EGSH
Valid from the 08 at 07:00 until the 08 at 15:00 UTC


080706Z 0807/0815 25015KT 9999 FEW014 SCT025
TEMPO 0807/0815 24018G30KT
PROB30
TEMPO 0807/0815 7000 SHRA
ATIS : +44 1603 420 640



MET'MAP, your aeronautical weather chart ! - Copyright ORBIFLY December 2007 - Disclaimer

ORBIFLY MET'MAP TEAM :

Programming & Development : Alexandra Zaïnal
Concept & original design : Baudouin d'Aumeries
Assistance for programming : Marc-Olivier Méhu
Technical & hardware support : Manuel Goepfert

Contact : metmap@orbifly.com




SOURCES & CREDITS :

   NOAA